sensor_id;sensor_type;location;lat;lon;timestamp;pressure;altitude;pressure_sealevel;temperature
25985;BMP280;66753;53.848;10.658;2023-09-12T00:14:30;101331.56;;;21.01
25985;BMP280;66753;53.848;10.658;2023-09-12T00:29:32;101338.16;;;20.96
25985;BMP280;66753;53.848;10.658;2023-09-12T00:44:34;101344.69;;;20.95
25985;BMP280;66753;53.848;10.658;2023-09-12T00:59:35;101360.16;;;20.84
25985;BMP280;66753;53.848;10.658;2023-09-12T01:14:37;101365.94;;;20.79
25985;BMP280;66753;53.848;10.658;2023-09-12T01:29:38;101355.16;;;20.83
25985;BMP280;66753;53.848;10.658;2023-09-12T01:44:41;101355.16;;;20.79
25985;BMP280;66753;53.848;10.658;2023-09-12T01:59:44;101336.31;;;20.72
25985;BMP280;66753;53.848;10.658;2023-09-12T02:14:45;101302.44;;;20.75
25985;BMP280;66753;53.848;10.658;2023-09-12T02:29:47;101286.28;;;20.71
25985;BMP280;66753;53.848;10.658;2023-09-12T02:44:48;101320.63;;;20.53
25985;BMP280;66753;53.848;10.658;2023-09-12T02:59:49;101383.41;;;20.36
25985;BMP280;66753;53.848;10.658;2023-09-12T03:14:50;101401.09;;;20.34
25985;BMP280;66753;53.848;10.658;2023-09-12T03:29:53;101364.16;;;20.41
25985;BMP280;66753;53.848;10.658;2023-09-12T03:44:54;101397.22;;;20.45
25985;BMP280;66753;53.848;10.658;2023-09-12T03:59:55;101418.00;;;20.48
25985;BMP280;66753;53.848;10.658;2023-09-12T04:14:56;101416.47;;;20.44
25985;BMP280;66753;53.848;10.658;2023-09-12T04:29:58;101407.97;;;20.59
25985;BMP280;66753;53.848;10.658;2023-09-12T04:45:01;101381.75;;;20.70
25985;BMP280;66753;53.848;10.658;2023-09-12T05:00:02;101370.13;;;20.94
25985;BMP280;66753;53.848;10.658;2023-09-12T05:15:07;101371.50;;;21.23
25985;BMP280;66753;53.848;10.658;2023-09-12T05:30:09;101386.47;;;21.31
25985;BMP280;66753;53.848;10.658;2023-09-12T05:45:12;101441.19;;;21.35
25985;BMP280;66753;53.848;10.658;2023-09-12T06:00:13;101480.56;;;21.22
25985;BMP280;66753;53.848;10.658;2023-09-12T06:15:16;101457.50;;;21.14
25985;BMP280;66753;53.848;10.658;2023-09-12T06:30:17;101426.97;;;21.28
25985;BMP280;66753;53.848;10.658;2023-09-12T06:45:19;101448.50;;;21.38
25985;BMP280;66753;53.848;10.658;2023-09-12T07:00:21;101454.44;;;21.70
25985;BMP280;66753;53.848;10.658;2023-09-12T07:15:22;101472.81;;;21.96
25985;BMP280;66753;53.848;10.658;2023-09-12T07:30:24;101471.88;;;22.13
25985;BMP280;66753;53.848;10.658;2023-09-12T07:45:26;101463.88;;;22.43
25985;BMP280;66753;53.848;10.658;2023-09-12T08:00:29;101473.06;;;22.86
25985;BMP280;66753;53.848;10.658;2023-09-12T08:15:32;101467.38;;;22.80
25985;BMP280;66753;53.848;10.658;2023-09-12T08:30:36;101472.13;;;23.03
25985;BMP280;66753;53.848;10.658;2023-09-12T08:45:37;101495.25;;;23.64
25985;BMP280;66753;53.848;10.658;2023-09-12T09:00:39;101515.66;;;24.18
25985;BMP280;66753;53.848;10.658;2023-09-12T09:15:42;101501.50;;;24.10
25985;BMP280;66753;53.848;10.658;2023-09-12T09:30:48;101513.06;;;24.95
25985;BMP280;66753;53.848;10.658;2023-09-12T09:45:55;101519.94;;;26.72
25985;BMP280;66753;53.848;10.658;2023-09-12T10:00:56;101477.03;;;25.62
25985;BMP280;66753;53.848;10.658;2023-09-12T10:16:00;101477.09;;;24.91
25985;BMP280;66753;53.848;10.658;2023-09-12T10:31:07;101483.28;;;24.92
25985;BMP280;66753;53.848;10.658;2023-09-12T10:46:09;101481.34;;;25.60
25985;BMP280;66753;53.848;10.658;2023-09-12T11:01:26;101453.88;;;26.02
25985;BMP280;66753;53.848;10.658;2023-09-12T11:16:27;101456.16;;;26.20
25985;BMP280;66753;53.848;10.658;2023-09-12T11:31:30;101448.41;;;26.18
25985;BMP280;66753;53.848;10.658;2023-09-12T12:26:26;101483.16;;;24.99
25985;BMP280;66753;53.848;10.658;2023-09-12T12:41:29;101472.25;;;25.34
25985;BMP280;66753;53.848;10.658;2023-09-12T12:56:32;101444.50;;;25.27
25985;BMP280;66753;53.848;10.658;2023-09-12T13:11:34;101408.66;;;25.35
25985;BMP280;66753;53.848;10.658;2023-09-12T13:26:36;101403.09;;;25.71
25985;BMP280;66753;53.848;10.658;2023-09-12T13:41:38;101421.63;;;26.04
25985;BMP280;66753;53.848;10.658;2023-09-12T13:56:41;101438.41;;;26.15
25985;BMP280;66753;53.848;10.658;2023-09-12T14:11:42;101437.66;;;26.68
25985;BMP280;66753;53.848;10.658;2023-09-12T14:26:44;101447.06;;;27.17
25985;BMP280;66753;53.848;10.658;2023-09-12T14:41:45;101436.91;;;26.55
25985;BMP280;66753;53.848;10.658;2023-09-12T14:56:51;101437.81;;;26.36
25985;BMP280;66753;53.848;10.658;2023-09-12T15:11:53;101434.41;;;26.20
25985;BMP280;66753;53.848;10.658;2023-09-12T15:26:54;101430.44;;;25.64
25985;BMP280;66753;53.848;10.658;2023-09-12T15:41:56;101425.41;;;25.78
25985;BMP280;66753;53.848;10.658;2023-09-12T15:56:58;101416.50;;;26.35
25985;BMP280;66753;53.848;10.658;2023-09-12T16:11:59;101413.53;;;26.29
25985;BMP280;66753;53.848;10.658;2023-09-12T16:27:01;101388.56;;;26.06
25985;BMP280;66753;53.848;10.658;2023-09-12T16:42:03;101405.56;;;25.81
25985;BMP280;66753;53.848;10.658;2023-09-12T16:57:05;101417.28;;;25.46
25985;BMP280;66753;53.848;10.658;2023-09-12T17:12:07;101411.91;;;24.95
25985;BMP280;66753;53.848;10.658;2023-09-12T17:27:08;101403.81;;;24.37
25985;BMP280;66753;53.848;10.658;2023-09-12T17:42:10;101423.59;;;23.72
25985;BMP280;66753;53.848;10.658;2023-09-12T17:57:11;101429.81;;;23.16
25985;BMP280;66753;53.848;10.658;2023-09-12T18:12:13;101431.25;;;22.60
25985;BMP280;66753;53.848;10.658;2023-09-12T18:27:15;101432.47;;;22.19
25985;BMP280;66753;53.848;10.658;2023-09-12T18:42:16;101454.34;;;21.88
25985;BMP280;66753;53.848;10.658;2023-09-12T18:57:18;101465.31;;;21.63
25985;BMP280;66753;53.848;10.658;2023-09-12T19:12:20;101464.31;;;21.36
25985;BMP280;66753;53.848;10.658;2023-09-12T19:27:22;101465.59;;;21.04
25985;BMP280;66753;53.848;10.658;2023-09-12T19:42:23;101456.06;;;20.71
25985;BMP280;66753;53.848;10.658;2023-09-12T19:57:26;101436.47;;;20.46
25985;BMP280;66753;53.848;10.658;2023-09-12T20:12:28;101428.78;;;20.17
25985;BMP280;66753;53.848;10.658;2023-09-12T20:27:29;101420.34;;;19.87
25985;BMP280;66753;53.848;10.658;2023-09-12T20:42:32;101429.53;;;19.65
25985;BMP280;66753;53.848;10.658;2023-09-12T20:57:34;101424.88;;;19.45
25985;BMP280;66753;53.848;10.658;2023-09-12T21:12:35;101408.66;;;19.27
25985;BMP280;66753;53.848;10.658;2023-09-12T21:27:37;101413.19;;;19.09
25985;BMP280;66753;53.848;10.658;2023-09-12T21:42:39;101413.91;;;18.96
25985;BMP280;66753;53.848;10.658;2023-09-12T21:57:40;101426.91;;;18.87
25985;BMP280;66753;53.848;10.658;2023-09-12T22:12:42;101421.47;;;18.80
25985;BMP280;66753;53.848;10.658;2023-09-12T22:27:44;101408.00;;;18.69
25985;BMP280;66753;53.848;10.658;2023-09-12T22:42:46;101392.59;;;18.63
25985;BMP280;66753;53.848;10.658;2023-09-12T22:57:47;101373.34;;;18.54
25985;BMP280;66753;53.848;10.658;2023-09-12T23:12:49;101354.50;;;18.43
25985;BMP280;66753;53.848;10.658;2023-09-12T23:27:52;101349.94;;;18.51
25985;BMP280;66753;53.848;10.658;2023-09-12T23:42:54;101358.03;;;18.54
25985;BMP280;66753;53.848;10.658;2023-09-12T23:57:56;101345.38;;;18.55
